Time;durP1;ratioP1;P1;durP2;ratioP2;P2;SDS_P1;SDS_P2;PMS_P1;PMS_P2;Temp;Humidity;BMP_temperature;BMP_pressure;BME280_temperature;BME280_humidity;BME280_pressure;Samples;Min_cycle;Max_cycle;Signal;HPM_P1;HPM_P2
2023/01/20 02:08:47;;;;;;;24.70;8.50;;;;;;;8.31;95.42;98662.25;105135;1283;612563;-41
2023/01/20 02:11:15;;;;;;;28.60;8.60;;;;;;;8.75;93.40;98653.84;106471;1265;193548;-41
2023/01/20 02:13:42;;;;;;;31.80;9.30;;;;;;;8.73;93.33;98653.56;106612;1266;61010;-41
2023/01/20 02:16:15;;;;;;;31.90;9.00;;;;;;;8.71;93.00;98656.94;106583;1266;74263;-40
2023/01/20 02:19:14;;;;;;;32.20;8.50;;;;;;;8.71;92.03;98656.71;106684;1266;71065;-40
2023/01/20 02:21:54;;;;;;;29.10;9.00;;;;;;;8.73;91.28;98661.45;106697;1266;74036;-41
2023/01/20 02:24:55;;;;;;;30.50;8.70;;;;;;;8.69;91.22;98667.11;106738;1266;62616;-40
2023/01/20 02:27:40;;;;;;;26.90;7.70;;;;;;;8.67;90.40;98668.77;106730;1266;61999;-40
2023/01/20 02:30:34;;;;;;;26.30;8.20;;;;;;;8.67;89.65;98676.18;106745;1266;72854;-40
2023/01/20 02:33:22;;;;;;;32.10;9.10;;;;;;;8.66;89.13;98677.33;106719;1266;68924;-40
2023/01/20 02:36:02;;;;;;;32.50;9.30;;;;;;;8.59;88.87;98680.00;106717;1266;73806;-40
2023/01/20 02:38:29;;;;;;;;;;;;;;;8.51;88.77;98679.27;106612;1265;62163;-41
2023/01/20 02:41:07;;;;;;;30.00;7.80;;;;;;;8.47;88.65;98679.81;106605;1266;59839;-41
2023/01/20 02:43:44;;;;;;;29.90;8.90;;;;;;;8.47;88.57;98688.45;106687;1270;74421;-40
2023/01/20 02:46:25;;;;;;;30.50;9.50;;;;;;;8.44;88.63;98710.54;106642;1266;70195;-40
2023/01/20 02:48:57;;;;;;;30.50;9.30;;;;;;;8.39;88.67;98737.48;106622;1266;75015;-40
2023/01/20 02:51:26;;;;;;;33.50;8.60;;;;;;;8.35;88.74;98738.56;106601;1265;63270;-40
2023/01/20 02:53:59;;;;;;;30.80;7.90;;;;;;;8.29;88.42;98731.95;106594;1266;61927;-41
2023/01/20 02:56:28;;;;;;;28.70;8.40;;;;;;;8.32;88.27;98732.41;106696;1265;74563;-41
2023/01/20 02:59:00;;;;;;;27.40;8.80;;;;;;;8.27;88.41;98738.87;106920;1261;70086;-41
2023/01/20 03:01:33;;;;;;;30.50;7.40;;;;;;;8.23;88.48;98736.31;106878;1262;71919;-40
2023/01/20 03:04:00;;;;;;;26.60;9.10;;;;;;;8.22;88.56;98733.54;106854;1262;62127;-40
2023/01/20 03:06:31;;;;;;;31.50;9.20;;;;;;;8.28;88.40;98735.95;106964;1262;60844;-41
2023/01/20 03:09:00;;;;;;;30.10;8.70;;;;;;;8.30;88.33;98737.71;106892;1262;73851;-41
2023/01/20 03:11:28;;;;;;;29.50;8.60;;;;;;;8.27;88.12;98735.39;106923;1262;69001;-40
2023/01/20 03:14:15;;;;;;;27.40;8.50;;;;;;;8.21;88.08;98735.81;106820;1262;74036;-41
2023/01/20 03:16:46;;;;;;;37.40;9.60;;;;;;;8.20;87.92;98744.50;106849;1261;62552;-40
2023/01/20 03:19:14;;;;;;;31.10;8.40;;;;;;;8.17;87.98;98751.64;106910;1262;59111;-41
2023/01/20 03:21:41;;;;;;;28.30;8.10;;;;;;;8.14;88.09;98750.27;106864;1262;73530;-41
2023/01/20 03:24:08;;;;;;;29.80;8.60;;;;;;;8.11;88.04;98743.20;106840;1262;69971;-41
2023/01/20 03:26:35;;;;;;;29.60;8.80;;;;;;;8.13;87.77;98742.91;106859;1262;74118;-41
2023/01/20 03:29:07;;;;;;;28.00;8.90;;;;;;;8.16;87.58;98746.15;106859;1263;61443;-41
2023/01/20 03:31:42;;;;;;;29.80;9.00;;;;;;;8.15;87.29;98744.03;106955;1266;61417;-40
2023/01/20 03:34:11;;;;;;;34.80;9.60;;;;;;;8.09;87.42;98740.98;106871;1263;74408;-41
2023/01/20 03:36:39;;;;;;;26.70;8.30;;;;;;;8.03;87.58;98744.36;106870;1261;70294;-40
2023/01/20 03:39:06;;;;;;;27.40;8.20;;;;;;;8.04;87.57;98745.93;106852;1267;74107;-40
2023/01/20 03:41:55;;;;;;;31.60;8.40;;;;;;;8.12;87.41;98760.11;106874;1263;61461;-41
2023/01/20 03:44:37;;;;;;;31.40;8.50;;;;;;;8.18;87.28;98763.31;106856;1261;60554;-40
2023/01/20 03:47:09;;;;;;;38.80;9.30;;;;;;;8.17;87.16;98751.64;106717;1263;74539;-40
2023/01/20 03:49:45;;;;;;;30.70;8.10;;;;;;;8.14;87.22;98745.25;106727;1267;68013;-41
2023/01/20 03:52:18;;;;;;;35.10;9.00;;;;;;;8.19;86.93;98751.53;106742;1267;74970;-40
2023/01/20 03:54:56;;;;;;;26.60;7.70;;;;;;;8.27;86.57;98766.87;106759;1263;62636;-40
2023/01/20 03:57:30;;;;;;;28.70;8.40;;;;;;;8.27;86.41;98774.81;106712;1262;61677;-41
2023/01/20 03:59:58;;;;;;;29.70;8.50;;;;;;;8.23;86.35;98776.81;106740;1262;75707;-40
2023/01/20 04:02:25;;;;;;;27.70;8.60;;;;;;;8.19;86.38;98764.00;106739;1261;70633;-40
2023/01/20 04:04:53;;;;;;;30.30;8.40;;;;;;;8.20;86.04;98767.59;106811;1267;74232;-39
2023/01/20 04:07:21;;;;;;;23.90;7.80;;;;;;;8.22;85.65;98762.06;106720;1268;61434;-40
2023/01/20 04:09:51;;;;;;;26.20;8.00;;;;;;;8.20;85.75;98765.73;106792;1262;62525;-40
2023/01/20 04:12:18;;;;;;;23.60;8.00;;;;;;;8.17;85.84;98769.39;106855;1262;74105;-40
2023/01/20 04:14:45;;;;;;;27.00;7.50;;;;;;;8.14;85.89;98771.79;106870;1262;67342;-40
2023/01/20 04:17:12;;;;;;;23.90;7.50;;;;;;;8.15;85.63;98781.29;106850;1262;73999;-39
2023/01/20 04:19:40;;;;;;;26.50;7.90;;;;;;;8.15;85.46;98791.55;106855;1263;60306;-39
2023/01/20 04:22:27;;;;;;;28.00;8.60;;;;;;;8.13;85.59;98791.05;106849;1261;61747;-40
2023/01/20 04:25:10;;;;;;;31.20;9.30;;;;;;;8.09;85.64;98789.81;106864;1262;74434;-39
2023/01/20 04:27:37;;;;;;;24.30;7.40;;;;;;;8.00;85.67;98798.20;106889;1263;68868;-40
2023/01/20 04:30:05;;;;;;;25.30;8.10;;;;;;;7.96;85.81;98800.91;106835;1267;74903;-40
2023/01/20 04:32:33;;;;;;;23.70;8.00;;;;;;;8.00;85.80;98819.97;106904;1262;60978;-40
2023/01/20 04:35:00;;;;;;;27.60;8.70;;;;;;;8.00;85.92;98824.82;106760;1263;61107;-40
2023/01/20 04:37:27;;;;;;;29.10;8.90;;;;;;;7.98;85.94;98829.09;106729;1262;74770;-40
2023/01/20 04:39:54;;;;;;;30.20;9.50;;;;;;;7.94;86.00;98826.61;106741;1262;70328;-40
2023/01/20 04:42:21;;;;;;;29.00;7.20;;;;;;;7.96;86.04;98828.34;106717;1268;74052;-41
2023/01/20 04:44:48;;;;;;;31.70;8.50;;;;;;;8.01;86.00;98831.77;106812;1262;61690;-40
2023/01/20 04:47:15;;;;;;;26.20;8.00;;;;;;;8.05;86.00;98831.85;106864;1262;61899;-40
2023/01/20 04:49:43;;;;;;;28.40;9.10;;;;;;;8.09;86.22;98824.08;107026;1259;74399;-41
2023/01/20 04:52:10;;;;;;;28.40;7.80;;;;;;;8.14;86.05;98828.71;107036;1259;69101;-40
2023/01/20 04:54:37;;;;;;;19.40;6.00;;;;;;;8.19;85.71;98837.16;106969;1259;73795;-40
2023/01/20 04:57:04;;;;;;;28.70;7.80;;;;;;;8.23;85.38;98840.95;106954;1259;60401;-40
2023/01/20 04:59:31;;;;;;;26.70;8.30;;;;;;;8.25;85.36;98840.20;106955;1260;61352;-41
2023/01/20 05:01:58;;;;;;;29.90;8.10;;;;;;;8.25;85.38;98835.50;107039;1259;72367;-40
2023/01/20 05:04:26;;;;;;;28.70;8.10;;;;;;;8.23;85.18;98834.30;107047;1259;70138;-41
2023/01/20 05:06:53;;;;;;;25.60;7.40;;;;;;;8.25;84.99;98838.81;107025;1258;74036;-41
2023/01/20 05:09:20;;;;;;;21.50;7.60;;;;;;;8.28;84.81;98839.95;107020;1259;61805;-41
2023/01/20 05:11:47;;;;;;;22.00;7.40;;;;;;;8.27;84.74;98845.34;107036;1260;62128;-41
2023/01/20 05:14:14;;;;;;;22.90;7.50;;;;;;;8.25;84.84;98845.98;107002;1257;74535;-41
2023/01/20 05:16:42;;;;;;;31.50;8.00;;;;;;;8.23;84.85;98856.84;106997;1259;69633;-41
2023/01/20 05:19:11;;;;;;;20.60;6.60;;;;;;;8.23;84.61;98859.38;106986;1263;74132;-41
2023/01/20 05:21:38;;;;;;;29.70;7.90;;;;;;;8.28;84.49;98858.80;107082;1258;60594;-41
2023/01/20 05:24:06;;;;;;;23.30;8.00;;;;;;;8.27;84.42;98863.79;107042;1259;61880;-41
2023/01/20 05:26:33;;;;;;;29.70;8.50;;;;;;;8.25;84.52;98870.45;107066;1259;75383;-40
2023/01/20 05:29:01;;;;;;;29.50;8.40;;;;;;;8.23;84.54;98870.48;107033;1259;69073;-41
2023/01/20 05:31:28;;;;;;;27.70;7.50;;;;;;;8.25;84.49;98876.64;107113;1259;74020;-40
2023/01/20 05:33:56;;;;;;;26.00;7.50;;;;;;;8.29;84.25;98882.58;107051;1258;61678;-41
2023/01/20 05:36:23;;;;;;;26.20;8.70;;;;;;;8.29;84.23;98881.16;107230;1258;61952;-41
2023/01/20 05:38:50;;;;;;;29.20;9.00;;;;;;;8.25;84.32;98874.84;107065;1259;74087;-41
2023/01/20 05:41:17;;;;;;;23.50;7.50;;;;;;;8.22;84.35;98884.29;107033;1263;70772;-41
2023/01/20 05:43:44;;;;;;;21.50;6.80;;;;;;;8.21;84.24;98886.73;107066;1259;72361;-41
2023/01/20 05:46:12;;;;;;;27.70;8.10;;;;;;;8.21;84.26;98882.47;107007;1259;60779;-41
2023/01/20 05:48:39;;;;;;;29.40;7.80;;;;;;;8.19;84.41;98876.41;107061;1259;61670;-41
2023/01/20 05:51:07;;;;;;;19.00;8.10;;;;;;;8.15;84.73;98878.34;107006;1259;74533;-40
2023/01/20 05:53:34;;;;;;;27.00;7.60;;;;;;;8.12;84.83;98877.06;106958;1263;69647;-41
2023/01/20 05:56:02;;;;;;;23.90;7.00;;;;;;;8.14;84.94;98882.19;106982;1259;73719;-41
2023/01/20 05:58:29;;;;;;;20.10;7.00;;;;;;;8.21;84.88;98888.73;107063;1259;59606;-41
2023/01/20 06:01:10;;;;;;;23.70;7.90;;;;;;;8.23;84.91;98891.79;107047;1259;61035;-41
2023/01/20 06:03:38;;;;;;;26.70;8.50;;;;;;;8.23;85.05;98890.84;107022;1259;74228;-41
2023/01/20 06:06:07;;;;;;;27.50;8.10;;;;;;;8.23;85.15;98894.78;107010;1263;70070;-41
2023/01/20 06:08:34;;;;;;;20.60;6.80;;;;;;;8.28;84.94;98898.52;106994;1260;74027;-41
2023/01/20 06:11:01;;;;;;;27.00;8.00;;;;;;;8.37;84.68;98905.44;106994;1260;61800;-40
2023/01/20 06:13:29;;;;;;;22.70;8.00;;;;;;;8.37;84.28;98908.98;106960;1259;62013;-40
2023/01/20 06:15:56;;;;;;;23.80;7.70;;;;;;;8.32;84.30;98905.41;107057;1264;75471;-40
2023/01/20 06:18:24;;;;;;;21.70;6.70;;;;;;;8.27;84.43;98904.13;107087;1259;68758;-41
2023/01/20 06:20:51;;;;;;;23.70;6.80;;;;;;;8.28;84.41;98915.80;107030;1260;74102;-40
2023/01/20 06:23:18;;;;;;;20.40;7.60;;;;;;;8.32;84.05;98920.84;107034;1263;61719;-41
2023/01/20 06:25:45;;;;;;;24.10;7.00;;;;;;;8.29;84.04;98921.39;107062;1257;60482;-40
2023/01/20 06:28:12;;;;;;;21.40;7.20;;;;;;;8.24;84.07;98917.02;107051;1259;75686;-41
2023/01/20 06:30:41;;;;;;;22.30;6.70;;;;;;;8.18;84.22;98917.13;106983;1258;69085;-40
2023/01/20 06:33:09;;;;;;;21.20;7.00;;;;;;;8.17;84.31;98926.69;106941;1260;73932;-41
2023/01/20 06:35:37;;;;;;;19.20;6.00;;;;;;;8.19;84.26;98930.27;106944;1260;60464;-41
2023/01/20 06:38:04;;;;;;;25.40;7.60;;;;;;;8.20;84.45;98930.75;106968;1260;61345;-41
2023/01/20 06:40:31;;;;;;;20.30;7.80;;;;;;;8.19;84.48;98924.85;106964;1260;75151;-41
2023/01/20 06:42:58;;;;;;;18.50;6.80;;;;;;;8.17;84.45;98924.45;106984;1263;67350;-40
2023/01/20 06:45:26;;;;;;;23.10;6.50;;;;;;;8.20;84.42;98924.98;106981;1260;73567;-40
2023/01/20 06:47:53;;;;;;;22.30;7.00;;;;;;;8.23;84.15;98924.66;107002;1263;60429;-40
2023/01/20 06:50:20;;;;;;;21.80;8.00;;;;;;;8.23;84.18;98923.17;107053;1259;62542;-40
2023/01/20 06:52:47;;;;;;;23.40;7.20;;;;;;;8.22;84.27;98914.20;106984;1257;75161;-40
2023/01/20 06:55:14;;;;;;;21.00;6.90;;;;;;;8.22;84.17;98916.90;106994;1259;68777;-40
2023/01/20 06:57:42;;;;;;;21.60;6.30;;;;;;;8.24;83.97;98919.11;107022;1262;74418;-40
2023/01/20 07:00:10;;;;;;;17.30;6.10;;;;;;;8.23;83.90;98910.70;107006;1260;61181;-40
2023/01/20 07:02:37;;;;;;;22.30;7.40;;;;;;;8.31;83.86;98932.17;107090;1259;63055;-40
2023/01/20 07:05:06;;;;;;;17.90;6.60;;;;;;;8.28;83.58;98936.27;107056;1259;74964;-40
2023/01/20 07:07:34;;;;;;;24.70;7.30;;;;;;;8.24;83.71;98941.94;107046;1259;70566;-40
2023/01/20 07:10:02;;;;;;;20.60;6.30;;;;;;;8.28;83.89;98947.13;107029;1259;73853;-40
2023/01/20 07:12:29;;;;;;;19.00;6.70;;;;;;;8.38;83.57;98953.06;106947;1261;60452;-41
2023/01/20 07:14:56;;;;;;;18.20;6.90;;;;;;;8.39;83.54;98957.55;107009;1257;60882;-41
2023/01/20 07:17:23;;;;;;;27.90;8.10;;;;;;;8.39;83.48;98962.18;107061;1258;76013;-41
2023/01/20 07:19:50;;;;;;;20.50;7.10;;;;;;;8.36;83.40;98963.98;107044;1260;70699;-40
2023/01/20 07:22:17;;;;;;;19.00;6.60;;;;;;;8.32;83.58;98962.83;106954;1259;73671;-41
2023/01/20 07:24:45;;;;;;;18.00;6.80;;;;;;;8.37;83.60;98959.06;107008;1263;62677;-41
2023/01/20 07:27:13;;;;;;;22.90;7.40;;;;;;;8.42;83.30;98964.50;107003;1258;61730;-41
2023/01/20 07:29:41;;;;;;;23.80;8.10;;;;;;;8.41;83.32;98968.42;106994;1259;75211;-40
2023/01/20 07:32:08;;;;;;;22.90;7.10;;;;;;;8.39;83.43;98971.60;106976;1259;70754;-41
2023/01/20 07:34:35;;;;;;;23.90;7.10;;;;;;;8.38;83.50;98973.75;106959;1259;74094;-41
2023/01/20 07:37:02;;;;;;;14.40;6.40;;;;;;;8.42;83.41;98967.19;106978;1258;61017;-41
2023/01/20 07:39:30;;;;;;;22.00;7.50;;;;;;;8.50;83.16;98966.29;107050;1259;60339;-41
2023/01/20 07:41:57;;;;;;;18.90;6.70;;;;;;;8.51;83.12;98964.21;107012;1259;75242;-41
2023/01/20 07:44:24;;;;;;;22.60;8.50;;;;;;;8.47;83.17;98957.02;107035;1258;69254;-41
2023/01/20 07:46:51;;;;;;;20.00;7.00;;;;;;;8.56;83.30;98970.20;107051;1261;74995;-41
2023/01/20 07:49:18;;;;;;;21.00;7.10;;;;;;;8.62;83.08;98965.83;107041;1260;62733;-41
2023/01/20 07:51:45;;;;;;;18.10;6.60;;;;;;;8.69;82.84;98974.40;107041;1260;60554;-41
2023/01/20 07:54:13;;;;;;;21.70;7.40;;;;;;;8.71;82.72;98975.83;107038;1258;75130;-41
2023/01/20 07:56:40;;;;;;;21.10;7.40;;;;;;;8.69;82.79;98978.17;107020;1259;69755;-41
2023/01/20 07:59:09;;;;;;;20.70;6.40;;;;;;;8.67;82.79;98978.98;107028;1262;73178;-41
2023/01/20 12:20:40;;;;;;;24.20;11.20;;;;;;;10.11;87.26;99044.20;105155;1282;614139;-48
2023/01/20 12:23:44;;;;;;;23.70;12.50;;;;;;;10.70;84.05;99053.10;106465;1265;184573;-39
2023/01/20 12:26:13;;;;;;;22.80;11.40;;;;;;;10.75;83.64;99049.21;106674;1264;61684;-39
2023/01/20 12:28:42;;;;;;;26.60;12.80;;;;;;;10.89;83.16;99050.23;106761;1264;73819;-39
2023/01/20 12:31:09;;;;;;;26.90;14.80;;;;;;;11.08;82.34;99051.02;106678;1264;70181;-38
2023/01/20 12:33:47;;;;;;;31.00;16.50;;;;;;;11.23;81.22;99055.53;106648;1266;74925;-38
2023/01/20 12:36:36;;;;;;;27.90;17.10;;;;;;;11.34;80.25;99054.89;106647;1264;60433;-39
2023/01/20 12:39:32;;;;;;;23.80;11.50;;;;;;;11.36;79.27;99057.08;106609;1264;61359;-39
2023/01/20 12:42:53;;;;;;;17.80;11.00;;;;;;;11.43;78.62;99056.99;106672;1266;70746;-39
2023/01/20 12:45:26;;;;;;;27.90;11.50;;;;;;;11.48;78.01;99059.69;106348;1271;70188;-40
2023/01/20 12:48:07;;;;;;;22.40;11.10;;;;;;;11.47;77.80;99060.37;106689;1264;71366;-40
2023/01/20 12:51:12;;;;;;;22.40;10.50;;;;;;;11.51;77.53;99056.84;106706;1266;60701;-41
2023/01/20 12:54:00;;;;;;;21.40;10.10;;;;;;;11.58;77.18;99059.02;106636;1264;61742;-41
2023/01/20 12:56:38;;;;;;;22.80;11.50;;;;;;;11.63;76.95;99061.69;106716;1264;74079;-41
2023/01/20 12:59:15;;;;;;;21.90;12.40;;;;;;;11.66;76.77;99061.02;106719;1263;68343;-41
2023/01/20 13:01:46;;;;;;;26.40;12.60;;;;;;;11.70;76.48;99064.02;106710;1264;74228;-38
2023/01/20 13:05:09;;;;;;;18.00;9.10;;;;;;;11.75;76.28;99066.40;106714;1264;62181;-41
2023/01/20 13:07:52;;;;;;;19.20;9.10;;;;;;;11.85;75.76;99071.63;106278;1272;59897;-40
2023/01/20 13:10:35;;;;;;;22.00;9.40;;;;;;;11.83;75.87;99071.15;106597;1264;74654;-40
2023/01/20 13:13:11;;;;;;;20.40;9.10;;;;;;;11.84;75.63;99069.75;106670;1264;69495;-40
2023/01/20 13:15:41;;;;;;;20.40;8.50;;;;;;;11.79;75.46;99061.55;106664;1265;73759;-40
2023/01/20 13:18:23;;;;;;;15.90;8.70;;;;;;;11.79;75.44;99058.85;106550;1267;62176;-40
2023/01/20 13:20:50;;;;;;;22.50;9.10;;;;;;;11.78;75.57;99059.76;106725;1264;59850;-39
2023/01/20 13:23:21;;;;;;;19.40;8.00;;;;;;;11.72;75.62;99061.64;106801;1265;73974;-39
2023/01/20 13:25:48;;;;;;;16.50;7.60;;;;;;;11.64;75.82;99055.34;106620;1267;69000;-40
2023/01/20 13:28:26;;;;;;;21.40;8.40;;;;;;;11.60;75.81;99060.27;106660;1266;72809;-40
2023/01/20 13:30:56;;;;;;;16.50;8.40;;;;;;;11.58;75.85;99065.38;106824;1264;60782;-40
2023/01/20 13:33:33;;;;;;;17.70;9.10;;;;;;;11.51;76.05;99063.27;106820;1268;61506;-39
2023/01/20 13:36:21;;;;;;;16.50;8.90;;;;;;;11.42;76.34;99063.95;106797;1267;75194;-40
2023/01/20 13:38:50;;;;;;;16.80;8.70;;;;;;;11.40;76.48;99065.02;106764;1267;68620;-41
2023/01/20 13:41:54;;;;;;;22.30;10.80;;;;;;;11.37;76.69;99062.29;106832;1264;71722;-39
2023/01/20 13:44:37;;;;;;;20.90;10.20;;;;;;;11.33;76.83;99057.50;106784;1264;61445;-40
2023/01/20 13:47:08;;;;;;;23.90;10.00;;;;;;;11.26;76.91;99060.22;106767;1264;61753;-40
2023/01/20 13:49:48;;;;;;;21.20;10.80;;;;;;;11.27;77.00;99056.58;106749;1264;74035;-41
2023/01/20 13:52:49;;;;;;;22.20;11.10;;;;;;;11.25;76.99;99053.31;106776;1267;69960;-39
2023/01/20 13:55:29;;;;;;;24.10;10.80;;;;;;;11.18;77.22;99053.54;106608;1267;72917;-41
2023/01/20 13:57:56;;;;;;;22.10;9.90;;;;;;;11.10;77.60;99051.03;106726;1269;63513;-41
2023/01/20 14:00:23;;;;;;;20.00;9.90;;;;;;;11.09;77.65;99048.94;106779;1267;61439;-41
2023/01/20 14:02:51;;;;;;;21.40;9.70;;;;;;;11.07;77.70;99052.26;106725;1265;73805;-41
2023/01/20 14:05:27;;;;;;;21.60;9.60;;;;;;;11.02;77.93;99050.02;106770;1264;70344;-39
2023/01/20 14:07:55;;;;;;;20.30;8.30;;;;;;;10.94;78.15;99046.90;106758;1265;75007;-39
2023/01/20 14:10:22;;;;;;;16.80;8.50;;;;;;;10.94;78.20;99050.15;106770;1264;60890;-40
2023/01/20 14:12:49;;;;;;;18.40;9.50;;;;;;;10.92;78.33;99047.65;106723;1267;61334;-39
2023/01/20 14:15:47;;;;;;;18.70;9.00;;;;;;;10.87;78.42;99047.21;106782;1267;71707;-40
2023/01/20 14:18:15;;;;;;;16.00;7.70;;;;;;;10.80;78.62;99044.02;106724;1267;69186;-39
2023/01/20 14:20:45;;;;;;;18.10;8.30;;;;;;;10.79;78.62;99047.48;106833;1267;73656;-41
2023/01/20 14:23:29;;;;;;;16.40;9.10;;;;;;;10.78;78.69;99048.71;106750;1267;61664;-41
2023/01/20 14:26:01;;;;;;;19.20;8.40;;;;;;;10.72;78.86;99047.25;106807;1264;62269;-40
2023/01/20 14:28:28;;;;;;;18.40;7.70;;;;;;;10.65;78.93;99051.64;106794;1267;74702;-43
2023/01/20 14:31:17;;;;;;;17.90;7.20;;;;;;;10.65;78.89;99048.69;106757;1269;70549;-40
2023/01/20 14:33:57;;;;;;;18.10;7.70;;;;;;;10.66;78.85;99053.66;106711;1266;75042;-41
2023/01/20 14:36:25;;;;;;;18.40;8.40;;;;;;;10.58;78.87;99051.92;106798;1267;62153;-41
2023/01/20 14:38:55;;;;;;;13.00;7.10;;;;;;;10.51;79.03;99049.73;106815;1267;61647;-40
2023/01/20 14:41:26;;;;;;;18.10;7.30;;;;;;;10.47;79.03;99050.61;106789;1269;75406;-40
2023/01/20 14:43:54;;;;;;;14.20;7.60;;;;;;;10.45;78.95;99053.15;106834;1267;69266;-41
2023/01/20 14:46:22;;;;;;;15.90;7.80;;;;;;;10.39;78.96;99056.30;107356;1259;73815;-40
2023/01/20 14:48:50;;;;;;;18.10;8.00;;;;;;;10.31;79.06;99053.95;107390;1257;61046;-39
2023/01/20 14:51:18;;;;;;;14.40;7.00;;;;;;;10.26;79.12;99058.36;107282;1256;60387;-40
2023/01/20 14:53:45;;;;;;;15.50;7.90;;;;;;;10.25;79.06;99056.64;107133;1256;72972;-40
2023/01/20 14:56:18;;;;;;;18.40;8.60;;;;;;;10.22;79.18;99053.88;107309;1257;69224;-40
2023/01/20 14:58:47;;;;;;;16.70;8.60;;;;;;;10.16;79.43;99053.64;107270;1257;74990;-40
2023/01/20 15:01:22;;;;;;;17.10;7.90;;;;;;;10.08;79.55;99057.81;107330;1257;61292;-40
2023/01/20 15:03:56;;;;;;;13.90;7.70;;;;;;;10.04;79.69;99061.31;107359;1257;60139;-40
2023/01/20 15:06:24;;;;;;;15.00;8.30;;;;;;;10.00;79.84;99065.44;107274;1256;75368;-40
2023/01/20 15:08:53;;;;;;;15.20;8.60;;;;;;;9.94;80.00;99064.63;107299;1258;67279;-40
2023/01/20 15:11:33;;;;;;;15.00;7.70;;;;;;;9.88;80.02;99066.86;107164;1260;73543;-40
2023/01/20 15:14:00;;;;;;;19.40;8.60;;;;;;;9.87;79.99;99073.58;107329;1257;63012;-39
2023/01/20 15:16:45;;;;;;;14.60;7.90;;;;;;;9.87;79.87;99072.73;107332;1257;61990;-40
2023/01/20 15:19:16;;;;;;;17.40;9.40;;;;;;;9.84;79.90;99071.58;107275;1257;75110;-40
2023/01/20 15:21:49;;;;;;;15.80;8.20;;;;;;;9.78;79.97;99073.95;107270;1256;69557;-40
2023/01/20 15:24:22;;;;;;;14.50;7.30;;;;;;;9.77;79.86;99073.79;107176;1256;74319;-41
2023/01/20 15:26:51;;;;;;;16.10;7.50;;;;;;;9.80;79.72;99073.76;107215;1257;61208;-40
2023/01/20 15:29:38;;;;;;;16.30;7.70;;;;;;;9.77;79.61;99070.94;107266;1260;61538;-40
2023/01/20 15:32:09;;;;;;;14.70;7.90;;;;;;;9.71;79.61;99071.67;107096;1257;74502;-40
2023/01/20 15:34:36;;;;;;;13.40;7.60;;;;;;;9.64;79.75;99072.70;107273;1256;70170;-40
2023/01/20 15:37:08;;;;;;;17.10;7.80;;;;;;;9.64;79.62;99070.45;107206;1257;73621;-40
2023/01/20 15:39:35;;;;;;;13.40;8.60;;;;;;;9.66;79.52;99069.09;107308;1256;61683;-39
2023/01/20 15:42:02;;;;;;;17.70;8.40;;;;;;;9.64;79.25;99068.76;107234;1262;60106;-41
2023/01/20 20:43:02;;;;;;;27.40;17.40;;;;;;;6.20;79.53;99216.54;104784;1283;613015;-40
2023/01/20 20:45:29;;;;;;;26.30;16.50;;;;;;;6.47;77.01;99223.50;106445;1266;212807;-40
2023/01/20 20:47:56;;;;;;;27.90;18.00;;;;;;;6.35;76.91;99223.86;106623;1271;61527;-40
2023/01/20 20:50:24;;;;;;;29.20;18.40;;;;;;;6.25;76.86;99229.89;106695;1267;72426;-41
2023/01/20 20:52:51;;;;;;;30.90;18.40;;;;;;;6.16;76.69;99234.59;106723;1269;69965;-40
2023/01/20 20:55:18;;;;;;;30.40;18.50;;;;;;;6.09;76.66;99240.67;106703;1269;72785;-40
2023/01/20 20:57:45;;;;;;;29.00;18.20;;;;;;;6.05;76.65;99241.52;107207;1262;62113;-41
2023/01/20 21:00:14;;;;;;;31.90;20.30;;;;;;;5.97;76.69;99240.99;107226;1257;60414;-40
2023/01/20 21:02:42;;;;;;;31.90;18.10;;;;;;;5.85;76.76;99240.96;107232;1258;73286;-40
2023/01/20 21:05:10;;;;;;;29.10;17.60;;;;;;;5.76;76.84;99247.45;107226;1261;67874;-40
2023/01/20 21:07:38;;;;;;;31.10;19.30;;;;;;;5.72;76.86;99247.23;107273;1257;70625;-40
2023/01/20 21:10:06;;;;;;;30.10;18.30;;;;;;;5.66;77.02;99256.17;107240;1262;61514;-40
2023/01/20 21:12:33;;;;;;;33.70;19.70;;;;;;;5.58;77.22;99259.55;107218;1257;59982;-40
2023/01/20 21:15:00;;;;;;;31.00;19.10;;;;;;;5.46;77.27;99254.36;107111;1257;74084;-40
2023/01/20 21:17:28;;;;;;;27.30;17.00;;;;;;;5.51;77.35;99265.83;107118;1257;69916;-40
2023/01/20 21:19:55;;;;;;;28.70;18.70;;;;;;;5.52;77.34;99268.24;107229;1257;72239;-40
2023/01/20 21:22:22;;;;;;;32.70;19.70;;;;;;;5.48;77.27;99262.80;107239;1257;61396;-40
2023/01/20 21:24:49;;;;;;;31.00;19.20;;;;;;;5.42;77.43;99264.58;107244;1257;59480;-40
2023/01/20 21:27:16;;;;;;;34.30;18.90;;;;;;;5.36;77.41;99264.19;107222;1258;74073;-40
2023/01/20 21:29:45;;;;;;;31.00;18.50;;;;;;;5.35;77.51;99264.15;107212;1258;70057;-40
2023/01/20 21:32:12;;;;;;;35.90;20.80;;;;;;;5.33;77.36;99264.08;107275;1257;71982;-40
2023/01/20 21:34:39;;;;;;;34.50;20.40;;;;;;;5.28;77.38;99269.80;107278;1262;61714;-40
2023/01/20 21:37:07;;;;;;;37.70;20.60;;;;;;;5.23;77.29;99266.66;107277;1257;61564;-40
2023/01/20 21:39:34;;;;;;;33.90;19.90;;;;;;;5.21;77.45;99266.69;107257;1257;74154;-41
2023/01/20 21:42:04;;;;;;;34.60;20.80;;;;;;;5.22;77.34;99259.98;107211;1260;69898;-40
2023/01/20 21:44:35;;;;;;;30.90;20.00;;;;;;;5.18;77.40;99261.67;107222;1260;73390;-40
2023/01/20 21:47:09;;;;;;;31.50;20.00;;;;;;;5.09;77.40;99269.84;107211;1258;61612;-40
2023/01/20 21:52:40;;;;;;;31.90;19.60;;;;;;;5.02;77.51;99256.82;107266;1262;74222;-41
2023/01/20 21:55:09;;;;;;;33.80;20.70;;;;;;;4.98;77.69;99255.59;107211;1260;69500;-40
2023/01/20 21:57:37;;;;;;;;;;;;;;;4.92;77.66;99250.80;107243;1260;71999;-40
2023/01/20 22:00:07;;;;;;;32.50;19.20;;;;;;;4.81;77.87;99255.46;107191;1260;62469;-40
2023/01/20 22:02:44;;;;;;;36.80;21.20;;;;;;;4.77;78.10;99253.77;107046;1258;61720;-40
2023/01/20 22:05:11;;;;;;;33.40;21.10;;;;;;;4.73;78.30;99251.23;107224;1257;74213;-40
2023/01/20 22:07:38;;;;;;;34.40;22.40;;;;;;;4.65;78.40;99249.06;107227;1262;68804;-40
2023/01/20 22:10:06;;;;;;;32.70;20.60;;;;;;;4.56;78.76;99257.45;107235;1260;73887;-40
2023/01/20 22:12:34;;;;;;;34.70;22.40;;;;;;;4.53;78.92;99256.70;107231;1262;60787;-40
2023/01/20 22:15:02;;;;;;;36.30;23.80;;;;;;;4.49;79.11;99258.23;107252;1258;59696;-40
2023/01/20 22:17:31;;;;;;;39.10;23.70;;;;;;;4.42;79.11;99256.56;107195;1262;74211;-40
2023/01/20 22:19:58;;;;;;;40.90;23.70;;;;;;;4.33;79.39;99258.42;107269;1259;69735;-40
2023/01/20 22:22:25;;;;;;;36.50;22.80;;;;;;;4.30;79.64;99259.14;107221;1263;73417;-41
2023/01/20 22:24:52;;;;;;;45.60;24.50;;;;;;;4.26;79.70;99257.05;107199;1263;61438;-41
2023/01/20 22:27:19;;;;;;;40.00;25.20;;;;;;;4.18;79.95;99252.41;107217;1258;60144;-40
2023/01/20 22:29:46;;;;;;;41.40;23.60;;;;;;;4.08;80.13;99257.64;106490;1262;1003575;-40
2023/01/20 22:32:13;;;;;;;40.20;24.00;;;;;;;4.04;80.33;99256.09;107235;1261;69707;-41
2023/01/20 22:34:40;;;;;;;42.20;25.70;;;;;;;4.03;80.29;99258.88;107198;1258;73839;-41
2023/01/20 22:37:08;;;;;;;47.70;25.80;;;;;;;3.97;80.42;99255.73;107223;1263;61368;-41
2023/01/20 22:39:36;;;;;;;39.40;24.60;;;;;;;3.88;80.51;99256.21;107242;1260;61539;-41
2023/01/20 22:42:03;;;;;;;41.70;26.10;;;;;;;3.86;80.62;99255.59;107252;1260;74168;-41
2023/01/20 22:44:31;;;;;;;46.10;27.10;;;;;;;3.84;80.95;99258.48;107235;1261;70034;-41
2023/01/20 22:46:58;;;;;;;42.80;27.00;;;;;;;3.80;80.92;99257.55;107027;1263;73055;-41
2023/01/20 22:49:25;;;;;;;43.70;26.70;;;;;;;3.74;80.96;99256.20;107223;1262;62368;-41
2023/01/20 22:51:53;;;;;;;48.20;27.70;;;;;;;3.73;81.00;99256.75;107211;1262;59654;-41
2023/01/20 22:54:21;;;;;;;48.10;28.50;;;;;;;3.72;80.90;99261.16;107225;1263;74325;-41
2023/01/20 22:56:49;;;;;;;52.30;29.60;;;;;;;3.67;81.05;99262.77;107248;1263;69890;-41
2023/01/20 22:59:16;;;;;;;51.10;29.00;;;;;;;3.58;81.26;99263.73;107227;1257;73889;-41
2023/01/20 23:01:43;;;;;;;51.30;31.30;;;;;;;3.54;81.30;99259.13;107200;1263;62311;-41
2023/01/20 23:04:10;;;;;;;52.70;30.90;;;;;;;3.52;81.53;99254.88;107291;1263;60775;-41
2023/01/20 23:06:38;;;;;;;53.10;30.70;;;;;;;3.45;81.29;99251.91;107258;1263;74063;-41
2023/01/20 23:09:07;;;;;;;50.00;28.90;;;;;;;3.38;81.58;99253.14;106493;1262;1003769;-41